KASL/ASL METAR and TAF weather

Enter ICAO airport designator
Station Type Date Time Source
KASL METAR 2018/10/22 16:15 UTC NOAA

KASL 221615Z AUTO 00000KT 10SM CLR 13/07 A3028 RMK AO1 T01270067


Station Type Date Time Source
KASL Decoded METAR 2018/10/22 16:15 UTC NOAA

Station name not available
Oct 22, 2018 - 12:15 PM EDT / 2018.10.22 1615 UTC
Wind: Calm:0
Visibility: 10 mile(s):0
Sky conditions: clear
Temperature: 54.9 F (12.7 C)
Dew Point: 44.1 F (6.7 C)
Relative Humidity: 66%
Pressure (altimeter): 30.28 in. Hg (1025 hPa)
ob: KASL 221615Z AUTO 00000KT 10SM CLR 13/07 A3028 RMK AO1 T01270067
cycle: 16

Station Type Date Time Source
KASL TAF UTC NOAA

Error!


Example: see airport list